Time;durP1;ratioP1;P1;durP2;ratioP2;P2;SDS_P1;SDS_P2;PMS_P1;PMS_P2;Temp;Humidity;BMP_temperature;BMP_pressure;BME280_temperature;BME280_humidity;BME280_pressure;Samples;Min_cycle;Max_cycle;Signal;HPM_P1;HPM_P2
2022/11/19 00:01:09;;;;;;;7.57;6.47;;;;;;;6.87;100.00;100216.84;6072046;23;20027;-76
2022/11/19 00:03:37;;;;;;;5.70;5.32;;;;;;;7.47;100.00;100318.56;6026305;23;20080;-76
2022/11/19 00:06:09;;;;;;;6.95;5.60;;;;;;;7.50;100.00;100314.03;6054706;23;20087;-76
2022/11/19 00:08:35;;;;;;;6.57;5.90;;;;;;;7.48;100.00;100308.03;6059079;23;20339;-76
2022/11/19 00:11:08;;;;;;;5.78;5.38;;;;;;;7.33;100.00;100291.31;6079409;23;20102;-74
2022/11/19 00:13:36;;;;;;;6.05;5.53;;;;;;;7.44;100.00;100313.47;6051794;23;20030;-77
2022/11/19 00:16:05;;;;;;;6.82;6.13;;;;;;;7.47;100.00;100316.78;6046849;23;20089;-76
2022/11/19 00:18:32;;;;;;;6.68;6.10;;;;;;;7.18;100.00;100271.97;6050624;23;20523;-77
2022/11/19 00:21:11;;;;;;;6.32;5.93;;;;;;;7.45;100.00;100317.78;6068976;23;20401;-76
2022/11/19 00:23:39;;;;;;;7.10;6.40;;;;;;;7.40;100.00;100312.78;6057162;23;20198;-76
2022/11/19 00:26:11;;;;;;;6.88;6.38;;;;;;;7.21;100.00;100275.34;6074441;23;20039;-76
2022/11/19 00:28:38;;;;;;;6.00;5.60;;;;;;;7.28;100.00;100282.00;6034179;23;20018;-76
2022/11/19 00:31:10;;;;;;;6.30;5.90;;;;;;;7.43;100.00;100312.63;6056295;23;20048;-75
2022/11/19 00:33:37;;;;;;;6.00;5.43;;;;;;;7.42;100.00;100321.38;6060895;23;20024;-76
2022/11/19 00:36:05;;;;;;;6.50;6.00;;;;;;;7.42;100.00;100316.16;6072789;23;20088;-76
2022/11/19 00:38:32;;;;;;;10.07;6.78;;;;;;;6.81;100.00;100214.53;6057688;23;20019;-76
2022/11/19 00:40:59;;;;;;;7.55;6.63;;;;;;;7.00;100.00;100254.53;6050026;23;20114;-76
2022/11/19 00:46:16;;;;;;;8.02;7.30;;;;;;;6.85;100.00;100227.34;6058347;23;20614;-76
2022/11/19 00:48:43;;;;;;;7.85;6.40;;;;;;;5.65;100.00;100057.91;6062587;23;20025;-76
2022/11/19 00:51:09;;;;;;;6.63;6.13;;;;;;;6.87;100.00;100232.50;6062266;23;20507;-76
2022/11/19 00:53:36;;;;;;;6.82;6.28;;;;;;;7.35;100.00;100319.94;6057557;23;20026;-76
2022/11/19 00:56:06;;;;;;;5.65;5.25;;;;;;;7.21;100.00;100297.06;6041373;23;20009;-76
2022/11/19 00:58:33;;;;;;;6.40;5.90;;;;;;;7.23;100.00;100292.63;6046706;23;20041;-76
2022/11/19 01:00:59;;;;;;;8.52;5.53;;;;;;;6.94;100.00;100266.09;6070213;23;20038;-76
2022/11/19 01:03:26;;;;;;;8.40;6.57;;;;;;;6.77;100.00;100237.28;6057205;23;20015;-76
2022/11/19 01:05:52;;;;;;;9.95;6.88;;;;;;;7.29;100.00;100328.06;6076854;23;20050;-76
2022/11/19 01:08:19;;;;;;;7.70;6.70;;;;;;;6.72;100.00;100242.69;6058005;23;20082;-75
2022/11/19 01:10:45;;;;;;;5.28;4.97;;;;;;;7.05;100.00;100303.91;6070800;23;20022;-75
2022/11/19 01:15:57;;;;;;;22.05;5.97;;;;;;;7.01;100.00;100308.38;6073282;23;20233;-76
2022/11/19 01:18:26;;;;;;;8.73;6.03;;;;;;;7.23;100.00;100344.81;6038539;23;20073;-75
2022/11/19 01:20:54;;;;;;;7.80;7.03;;;;;;;6.81;100.00;100280.56;6044380;23;20033;-76
2022/11/19 01:23:20;;;;;;;6.80;6.20;;;;;;;6.91;100.00;100297.50;6071296;23;20095;-76
2022/11/19 01:25:47;;;;;;;6.57;6.13;;;;;;;6.48;100.00;100236.78;6050097;23;20314;-77
2022/11/19 01:28:13;;;;;;;5.85;5.40;;;;;;;7.16;100.00;100344.25;6051293;23;20074;-76
2022/11/19 01:30:41;;;;;;;5.97;5.47;;;;;;;7.12;100.00;100342.69;6059905;23;20202;-76
2022/11/19 01:33:08;;;;;;;5.97;5.38;;;;;;;7.12;100.00;100344.47;6041183;23;20526;-76
2022/11/19 01:35:35;;;;;;;6.47;5.57;;;;;;;7.09;100.00;100344.59;6067036;23;20022;-75
2022/11/19 01:38:03;;;;;;;6.43;5.82;;;;;;;6.58;100.00;100269.38;6053465;23;20032;-75
2022/11/19 01:40:29;;;;;;;6.07;5.68;;;;;;;5.76;100.00;100144.22;6070341;23;20088;-76
2022/11/19 01:42:55;;;;;;;7.03;6.53;;;;;;;6.79;100.00;100348.47;6047128;23;20052;-76
2022/11/19 01:45:36;;;;;;;5.72;5.22;;;;;;;6.72;100.00;100354.84;6064430;23;20025;-75
2022/11/19 01:48:08;;;;;;;6.30;5.88;;;;;;;6.75;100.00;100348.63;6048424;23;20093;-76
2022/11/19 01:50:41;;;;;;;5.82;5.32;;;;;;;6.44;100.00;100312.56;6069541;23;20039;-76
2022/11/19 01:53:08;;;;;;;5.70;5.40;;;;;;;6.04;100.00;100268.13;6055079;23;20034;-76
2022/11/19 01:55:36;;;;;;;5.60;5.15;;;;;;;6.57;100.00;100368.50;6040404;23;20019;-76
2022/11/19 01:58:06;;;;;;;4.97;4.57;;;;;;;5.96;100.00;100317.94;6058773;23;20026;-76
2022/11/19 02:00:32;;;;;;;5.32;4.93;;;;;;;6.32;100.00;100356.47;6042789;23;20156;-76
2022/11/19 02:02:59;;;;;;;5.43;5.13;;;;;;;5.30;100.00;100205.91;6081453;23;20026;-75
2022/11/19 02:05:27;;;;;;;4.82;4.50;;;;;;;6.03;100.00;100333.31;6052213;23;20069;-75
2022/11/19 02:07:56;;;;;;;5.40;5.00;;;;;;;6.05;100.00;100365.38;6057573;23;20018;-75
2022/11/19 02:10:44;;;;;;;4.97;4.38;;;;;;;5.51;100.00;100297.06;6045432;23;20076;-74
2022/11/19 02:13:35;;;;;;;5.28;4.75;;;;;;;5.86;100.00;100362.59;6024147;23;20040;-74
2022/11/19 02:16:12;;;;;;;4.93;4.63;;;;;;;5.07;100.00;100231.94;6056431;23;20088;-75
2022/11/19 02:18:56;;;;;;;7.40;4.15;;;;;;;5.77;100.00;100358.56;6075035;23;20165;-75
2022/11/19 02:21:36;;;;;;;4.40;4.10;;;;;;;4.94;100.00;100226.34;6054056;23;20018;-74
2022/11/19 02:24:24;;;;;;;4.88;4.50;;;;;;;5.66;100.00;100365.94;6060959;23;20082;-73
2022/11/19 02:27:18;;;;;;;5.05;4.75;;;;;;;5.26;100.00;100305.78;6068438;23;20118;-73
2022/11/19 02:30:09;;;;;;;5.22;4.85;;;;;;;5.06;100.00;100285.72;6063492;23;20022;-73
2022/11/19 02:32:57;;;;;;;4.55;4.35;;;;;;;5.46;100.00;100361.47;6060326;23;20026;-74
2022/11/19 02:35:43;;;;;;;5.68;5.25;;;;;;;4.32;100.00;100183.50;6081925;23;20018;-74
2022/11/19 02:38:38;;;;;;;6.03;5.63;;;;;;;5.22;100.00;100342.41;6041247;23;20381;-73
2022/11/19 02:41:33;;;;;;;4.65;4.43;;;;;;;5.19;100.00;100340.72;6047645;23;20285;-74
2022/11/19 02:47:17;;;;;;;5.28;4.85;;;;;;;4.95;100.00;100317.31;6072450;23;20026;-73
2022/11/19 02:49:44;;;;;;;4.60;4.40;;;;;;;3.74;100.00;100121.41;6012744;23;20027;-73
2022/11/19 02:52:13;;;;;;;4.68;4.38;;;;;;;5.23;100.00;100373.53;6063208;23;20034;-74
2022/11/19 02:54:40;;;;;;;4.05;3.80;;;;;;;5.20;100.00;100358.06;6060533;23;20036;-74
2022/11/19 02:57:10;;;;;;;4.20;3.92;;;;;;;5.10;100.00;100357.53;6071365;23;20174;-74
2022/11/19 03:05:21;;;;;;;3.60;3.40;;;;;;;4.72;100.00;100319.84;6052959;23;20585;-73
2022/11/19 03:07:47;;;;;;;3.88;3.67;;;;;;;4.71;100.00;100328.53;6073281;23;20033;-74
2022/11/19 03:10:16;;;;;;;4.70;4.40;;;;;;;4.31;100.00;100259.72;6041772;23;20025;-74
2022/11/19 03:12:54;;;;;;;4.05;3.85;;;;;;;4.88;100.00;100373.00;6069209;23;20186;-74
2022/11/19 03:18:34;;;;;;;4.80;4.40;;;;;;;4.61;100.00;100361.81;6046741;23;20018;-74
2022/11/19 03:21:07;;;;;;;4.43;4.03;;;;;;;4.40;100.00;100314.81;6059896;23;20255;-74
2022/11/19 03:23:48;;;;;;;4.03;3.75;;;;;;;4.50;100.00;100343.94;6083430;23;20075;-74
2022/11/19 03:26:42;;;;;;;6.15;4.88;;;;;;;4.70;100.00;100386.63;6034670;23;20023;-75
2022/11/19 03:29:12;;;;;;;3.78;3.58;;;;;;;4.67;100.00;100378.91;6051237;23;20452;-75
2022/11/19 03:31:43;;;;;;;4.53;4.22;;;;;;;4.17;100.00;100312.97;6060863;23;20540;-75
2022/11/19 03:34:14;;;;;;;6.55;3.85;;;;;;;4.27;100.00;100321.31;6063203;23;20063;-74
2022/11/19 03:36:43;;;;;;;4.15;3.95;;;;;;;4.67;100.00;100374.59;6058683;23;20027;-75
2022/11/19 03:39:15;;;;;;;5.50;5.20;;;;;;;4.44;100.00;100357.13;6042756;23;20072;-75
2022/11/19 03:41:46;;;;;;;3.80;3.60;;;;;;;4.45;100.00;100370.97;6076953;23;20088;-75
2022/11/19 03:44:17;;;;;;;4.25;4.05;;;;;;;4.56;100.00;100380.13;6066989;23;20080;-75
2022/11/19 03:46:46;;;;;;;8.77;5.90;;;;;;;4.49;100.00;100389.03;6057983;23;20015;-75
2022/11/19 03:49:15;;;;;;;4.43;4.13;;;;;;;4.51;100.00;100391.56;6065821;23;20026;-74
2022/11/19 03:51:50;;;;;;;5.25;4.95;;;;;;;3.67;100.00;100265.22;6058650;23;20122;-74
2022/11/19 03:54:17;;;;;;;5.30;4.10;;;;;;;3.72;100.00;100291.88;6071806;23;20026;-74
2022/11/19 03:56:45;;;;;;;3.80;3.60;;;;;;;4.24;100.00;100399.34;6037587;23;20072;-75
2022/11/19 03:59:12;;;;;;;5.13;4.82;;;;;;;4.14;100.00;100375.38;6063190;23;20030;-75
2022/11/19 04:01:38;;;;;;;3.80;3.58;;;;;;;3.93;100.00;100348.34;6058077;23;20022;-74
2022/11/19 04:06:50;;;;;;;3.97;3.78;;;;;;;3.66;100.00;100331.00;6059418;23;20092;-76
2022/11/19 04:09:16;;;;;;;4.72;4.32;;;;;;;4.07;100.00;100405.06;6050665;23;20030;-75
2022/11/19 04:11:43;;;;;;;4.15;3.95;;;;;;;3.29;100.00;100275.84;6026172;23;20276;-75
2022/11/19 04:14:09;;;;;;;3.72;3.55;;;;;;;3.83;100.00;100375.47;6037229;23;20033;-75
2022/11/19 04:16:36;;;;;;;3.72;3.42;;;;;;;3.55;100.00;100337.34;6071849;23;20030;-75
2022/11/19 04:19:02;;;;;;;5.95;4.97;;;;;;;4.08;100.00;100405.91;6097408;23;20074;-75
2022/11/19 04:21:29;;;;;;;4.30;4.00;;;;;;;3.77;100.00;100367.88;6055985;23;20026;-75
2022/11/19 04:23:55;;;;;;;4.60;4.30;;;;;;;3.31;100.00;100293.97;6041984;23;20022;-75
2022/11/19 04:26:21;;;;;;;5.35;4.95;;;;;;;3.80;100.00;100389.38;6037251;23;20029;-76
2022/11/19 04:28:48;;;;;;;4.55;4.22;;;;;;;3.78;100.00;100377.34;6034150;23;20561;-76
2022/11/19 04:31:14;;;;;;;3.53;3.33;;;;;;;3.91;100.00;100406.38;6053598;23;20451;-76
2022/11/19 04:33:44;;;;;;;4.13;3.92;;;;;;;4.03;100.00;100420.75;6068309;23;20662;-75
2022/11/19 04:36:10;;;;;;;5.78;4.60;;;;;;;3.40;100.00;100325.66;6060105;23;20328;-76
2022/11/19 04:38:36;;;;;;;5.53;5.03;;;;;;;3.89;100.00;100398.66;6064222;23;20019;-76
2022/11/19 04:41:03;;;;;;;4.20;4.00;;;;;;;3.60;100.00;100353.63;6053300;23;20410;-75
2022/11/19 04:43:30;;;;;;;4.82;4.53;;;;;;;3.71;100.00;100388.78;6062987;23;20078;-75
2022/11/19 04:45:56;;;;;;;5.53;5.05;;;;;;;3.69;100.00;100387.97;6060031;23;20401;-75
2022/11/19 04:48:22;;;;;;;4.25;4.05;;;;;;;3.56;100.00;100365.00;6059648;23;20093;-75
2022/11/19 04:50:49;;;;;;;4.60;4.30;;;;;;;3.85;100.00;100417.81;6043433;23;20034;-74
2022/11/19 04:53:15;;;;;;;4.00;3.78;;;;;;;3.92;100.00;100428.88;6047524;23;20115;-74
2022/11/19 04:55:42;;;;;;;5.22;4.93;;;;;;;3.32;100.00;100334.56;6069106;23;20050;-75
2022/11/19 04:58:08;;;;;;;4.85;4.55;;;;;;;3.39;100.00;100364.63;6065844;23;20033;-74
2022/11/19 05:00:35;;;;;;;5.65;5.20;;;;;;;3.63;100.00;100383.84;6063672;23;20025;-75
2022/11/19 05:03:01;;;;;;;4.35;4.15;;;;;;;3.52;100.00;100372.91;6061946;23;20029;-74
2022/11/19 05:05:27;;;;;;;4.75;4.07;;;;;;;3.65;100.00;100428.75;6059083;23;20422;-74
2022/11/19 05:07:54;;;;;;;4.30;4.10;;;;;;;3.44;100.00;100393.88;6063015;23;20026;-75
2022/11/19 05:10:20;;;;;;;4.05;3.83;;;;;;;3.28;100.00;100370.09;6059736;23;20037;-74
2022/11/19 05:12:47;;;;;;;5.00;4.65;;;;;;;3.81;100.00;100455.16;6067241;23;20041;-75
2022/11/19 05:15:13;;;;;;;5.03;4.53;;;;;;;3.59;100.00;100450.53;6058494;23;20042;-75
2022/11/19 05:17:40;;;;;;;4.43;4.13;;;;;;;3.56;100.00;100435.03;6076191;23;20083;-75
2022/11/19 05:20:08;;;;;;;3.80;3.50;;;;;;;3.76;100.00;100462.19;6058067;23;20034;-74
2022/11/19 05:22:34;;;;;;;4.90;4.60;;;;;;;3.57;100.00;100436.75;6065461;23;20041;-74
2022/11/19 05:25:00;;;;;;;6.43;4.57;;;;;;;3.38;100.00;100427.75;6072686;23;20044;-76
2022/11/19 05:27:27;;;;;;;7.30;5.22;;;;;;;3.46;100.00;100443.97;6062381;23;20006;-77
2022/11/19 05:29:53;;;;;;;4.55;4.25;;;;;;;3.52;100.00;100466.31;6052000;23;20034;-77
2022/11/19 05:32:20;;;;;;;4.28;4.07;;;;;;;3.68;100.00;100490.94;6066993;23;20011;-76
2022/11/19 05:34:47;;;;;;;6.78;6.28;;;;;;;3.30;100.00;100442.69;6060333;23;20188;-73
2022/11/19 05:37:13;;;;;;;6.28;5.68;;;;;;;3.34;100.00;100436.53;6066774;23;20216;-76
2022/11/19 05:39:40;;;;;;;5.60;5.20;;;;;;;2.45;100.00;100284.19;6042377;23;20157;-74
2022/11/19 05:42:06;;;;;;;5.53;5.07;;;;;;;3.31;100.00;100434.03;6044089;23;20026;-77
2022/11/19 05:44:33;;;;;;;6.10;4.40;;;;;;;3.63;100.00;100497.16;6071923;23;20064;-74
2022/11/19 05:46:59;;;;;;;6.35;5.88;;;;;;;2.92;100.00;100371.94;6050786;23;20539;-76
2022/11/19 05:49:26;;;;;;;5.35;4.80;;;;;;;2.85;100.00;100362.63;6063178;23;20150;-76
2022/11/19 05:51:52;;;;;;;6.90;4.95;;;;;;;3.67;100.00;100514.34;6074207;23;20032;-75
2022/11/19 05:54:19;;;;;;;5.07;4.60;;;;;;;3.17;100.00;100437.81;6064937;23;20183;-75
2022/11/19 05:56:45;;;;;;;5.82;4.80;;;;;;;2.77;100.00;100366.25;6065695;23;20037;-76
2022/11/19 05:59:12;;;;;;;4.20;3.90;;;;;;;3.60;100.00;100511.06;6061722;23;20487;-76
2022/11/19 06:01:38;;;;;;;4.50;4.20;;;;;;;3.62;100.00;100524.84;6079153;23;20089;-76
2022/11/19 06:04:05;;;;;;;5.35;4.97;;;;;;;3.65;100.00;100531.69;6065111;23;20082;-75
2022/11/19 06:06:31;;;;;;;4.68;4.20;;;;;;;3.23;100.00;100443.72;6066687;23;20018;-75
2022/11/19 06:08:58;;;;;;;4.88;4.57;;;;;;;3.42;100.00;100476.06;6062630;23;20099;-76
2022/11/19 06:14:09;;;;;;;5.28;4.88;;;;;;;3.51;100.00;100498.34;6058119;23;20037;-76
2022/11/19 06:16:36;;;;;;;5.72;5.18;;;;;;;3.47;100.00;100489.78;6048382;23;20026;-76
2022/11/19 06:19:02;;;;;;;6.07;5.00;;;;;;;3.77;100.00;100546.97;6056525;23;20026;-76
2022/11/19 06:21:30;;;;;;;5.00;4.60;;;;;;;2.99;100.00;100427.94;6041144;23;20542;-76
2022/11/19 06:23:56;;;;;;;5.45;4.88;;;;;;;3.74;100.00;100555.66;6061752;23;20034;-76
2022/11/19 06:26:24;;;;;;;4.72;4.38;;;;;;;3.39;100.00;100495.19;6067893;23;20025;-75
2022/11/19 06:28:51;;;;;;;3.95;3.75;;;;;;;3.71;100.00;100553.16;6061146;23;20033;-77
2022/11/19 06:31:18;;;;;;;6.10;5.57;;;;;;;3.24;100.00;100489.53;6045023;23;20488;-75
2022/11/19 06:33:45;;;;;;;5.40;5.00;;;;;;;2.96;100.00;100428.84;6068878;23;20026;-75
2022/11/19 06:36:11;;;;;;;3.58;3.42;;;;;;;2.52;100.00;100367.75;6079892;23;20014;-76
2022/11/19 06:38:38;;;;;;;4.70;4.30;;;;;;;3.76;100.00;100579.00;6077474;23;20499;-74
2022/11/19 06:41:05;;;;;;;5.25;4.72;;;;;;;3.61;100.00;100546.50;6044598;23;20097;-76
2022/11/19 06:43:32;;;;;;;5.75;5.15;;;;;;;3.32;100.00;100529.09;6034895;23;20018;-76
2022/11/19 06:45:58;;;;;;;5.28;4.78;;;;;;;3.49;100.00;100541.63;6050828;23;20077;-76
2022/11/19 06:48:25;;;;;;;4.80;4.40;;;;;;;3.54;100.00;100552.75;6055836;23;20020;-76
2022/11/19 06:50:51;;;;;;;6.20;5.70;;;;;;;3.03;100.00;100473.63;6023534;23;20031;-78
2022/11/19 06:53:18;;;;;;;4.95;4.65;;;;;;;2.60;100.00;100405.53;6068072;23;20103;-76
2022/11/19 06:55:44;;;;;;;6.82;5.40;;;;;;;3.39;100.00;100538.44;6015397;23;20474;-75
2022/11/19 06:58:12;;;;;;;4.63;4.32;;;;;;;3.25;100.00;100517.16;6072029;23;20033;-75
2022/11/19 07:00:38;;;;;;;4.90;4.13;;;;;;;3.82;100.00;100606.53;6042718;23;20027;-76
2022/11/19 07:03:05;;;;;;;5.70;5.15;;;;;;;3.67;100.00;100590.47;6065662;23;20084;-76
2022/11/19 07:05:31;;;;;;;5.25;4.88;;;;;;;2.53;100.00;100391.03;6033765;23;20038;-77
2022/11/19 07:07:58;;;;;;;3.88;3.67;;;;;;;3.69;100.00;100583.50;6008571;23;20407;-74
2022/11/19 07:10:28;;;;;;;3.42;3.22;;;;;;;3.53;100.00;100580.44;6064413;23;20029;-75
2022/11/19 07:12:55;;;;;;;4.25;4.05;;;;;;;3.35;100.00;100573.13;6067721;23;20037;-76
2022/11/19 07:15:21;;;;;;;4.60;4.30;;;;;;;3.46;100.00;100610.00;6083886;23;20022;-74
2022/11/19 07:17:48;;;;;;;5.07;4.72;;;;;;;3.39;100.00;100588.56;6058480;23;20034;-73
2022/11/19 07:20:15;;;;;;;4.50;4.13;;;;;;;3.58;100.00;100632.22;6061695;23;20026;-73
2022/11/19 07:22:42;;;;;;;4.63;4.30;;;;;;;3.36;100.00;100604.19;6049916;23;20034;-74
2022/11/19 07:25:11;;;;;;;4.78;4.47;;;;;;;3.51;100.00;100636.69;6056322;23;20010;-73
2022/11/19 07:27:47;;;;;;;4.40;3.97;;;;;;;2.77;100.00;100500.16;6068179;23;20030;-74
2022/11/19 07:30:14;;;;;;;3.30;3.20;;;;;;;3.55;100.00;100633.16;6056744;23;20010;-75
2022/11/19 07:32:42;;;;;;;4.68;4.28;;;;;;;3.21;100.00;100594.19;6049553;23;20441;-73
2022/11/19 07:35:09;;;;;;;5.10;4.72;;;;;;;3.57;100.00;100639.16;6080335;23;20018;-73
2022/11/19 07:37:37;;;;;;;5.15;4.55;;;;;;;3.59;100.00;100645.16;6048760;23;20080;-74
2022/11/19 07:40:04;;;;;;;3.78;3.58;;;;;;;2.55;100.00;100471.31;6027379;23;20022;-73
2022/11/19 07:42:48;;;;;;;4.90;4.45;;;;;;;3.63;100.00;100651.13;6058626;23;20685;-75
2022/11/19 07:45:17;;;;;;;3.45;3.35;;;;;;;2.28;100.00;100437.34;6070889;23;20097;-75
2022/11/19 07:47:45;;;;;;;5.13;4.82;;;;;;;3.49;100.00;100635.00;6030930;23;20015;-74
2022/11/19 07:50:12;;;;;;;4.43;4.20;;;;;;;3.16;100.00;100591.69;6051941;23;20022;-72
2022/11/19 07:52:39;;;;;;;4.47;4.20;;;;;;;3.44;100.00;100626.50;6044754;23;20232;-72
2022/11/19 07:55:06;;;;;;;4.35;4.05;;;;;;;3.51;100.00;100649.69;6079613;23;20022;-72
2022/11/19 07:57:32;;;;;;;4.90;4.53;;;;;;;3.53;100.00;100642.72;6043016;23;20018;-72
2022/11/19 07:59:59;;;;;;;4.80;4.38;;;;;;;3.64;100.00;100667.53;6070473;23;20093;-72
2022/11/19 08:02:25;;;;;;;5.85;4.55;;;;;;;3.57;100.00;100648.69;6026182;23;20014;-72
2022/11/19 08:04:52;;;;;;;4.57;4.18;;;;;;;3.74;100.00;100676.81;6053489;23;20022;-72
2022/11/19 08:07:18;;;;;;;5.35;4.82;;;;;;;3.44;100.00;100636.88;6049981;23;20027;-72
2022/11/19 08:09:45;;;;;;;4.32;3.92;;;;;;;2.98;100.00;100558.41;6073074;23;20186;-72
2022/11/19 08:12:11;;;;;;;5.82;4.97;;;;;;;2.94;100.00;100554.19;6048894;23;20086;-72
2022/11/19 08:14:38;;;;;;;4.10;3.85;;;;;;;3.10;100.00;100588.38;6052508;23;20039;-75
2022/11/19 08:19:49;;;;;;;5.53;4.80;;;;;;;3.84;100.00;100698.22;6051288;23;20456;-74
2022/11/19 08:22:16;;;;;;;5.28;4.88;;;;;;;2.86;100.00;100546.59;6083990;23;20029;-75
2022/11/19 08:24:43;;;;;;;4.75;4.22;;;;;;;3.42;100.00;100636.06;6062662;23;20017;-75
2022/11/19 08:27:09;;;;;;;5.75;5.25;;;;;;;3.84;100.00;100722.41;6050138;23;20018;-73
2022/11/19 08:29:36;;;;;;;5.85;5.32;;;;;;;3.66;100.00;100689.97;6067645;23;20440;-72
2022/11/19 08:32:02;;;;;;;4.40;4.10;;;;;;;3.89;100.00;100715.38;6057883;23;20105;-72
2022/11/19 08:34:31;;;;;;;5.30;3.70;;;;;;;3.87;100.00;100724.97;6057216;23;20011;-72
2022/11/19 08:36:57;;;;;;;5.25;4.88;;;;;;;3.23;100.00;100643.41;6072760;23;20056;-72
2022/11/19 08:39:24;;;;;;;6.60;4.97;;;;;;;3.45;100.00;100675.75;6070518;23;20239;-73
2022/11/19 08:44:35;;;;;;;5.53;5.13;;;;;;;3.66;100.00;100734.09;6064269;23;20018;-73
2022/11/19 08:47:02;;;;;;;3.83;3.63;;;;;;;3.13;100.00;100668.72;6057988;23;20113;-73
2022/11/19 08:49:28;;;;;;;4.72;4.32;;;;;;;3.14;100.00;100666.06;6070307;23;20081;-72
2022/11/19 08:51:56;;;;;;;4.97;4.65;;;;;;;2.70;100.00;100587.53;6066510;23;20033;-71
2022/11/19 08:54:23;;;;;;;6.45;4.97;;;;;;;3.37;100.00;100693.25;6089161;23;20070;-72
2022/11/19 08:56:49;;;;;;;4.07;3.80;;;;;;;3.71;100.00;100760.81;6064738;23;20060;-73
2022/11/19 08:59:16;;;;;;;4.45;4.10;;;;;;;3.71;100.00;100752.13;6073503;23;20130;-73
2022/11/19 09:01:43;;;;;;;3.75;3.55;;;;;;;3.74;100.00;100767.66;6064335;23;20035;-72
2022/11/19 09:04:09;;;;;;;5.57;5.07;;;;;;;3.69;100.00;100765.16;6074095;23;20034;-73
2022/11/19 09:06:35;;;;;;;5.32;4.85;;;;;;;3.76;100.00;100766.72;6056334;23;20366;-72
2022/11/19 09:09:03;;;;;;;4.70;4.40;;;;;;;3.74;100.00;100762.47;6057105;23;20022;-73
2022/11/19 09:11:29;;;;;;;5.50;4.97;;;;;;;3.51;100.00;100713.69;6076756;23;20126;-74
2022/11/19 09:13:56;;;;;;;4.82;4.43;;;;;;;3.33;100.00;100683.84;6068101;23;20081;-74
2022/11/19 09:16:23;;;;;;;4.95;4.53;;;;;;;3.34;100.00;100691.56;6060666;23;20160;-73
2022/11/19 09:18:50;;;;;;;5.13;4.60;;;;;;;2.75;100.00;100603.84;6074275;23;20030;-73
2022/11/19 09:21:16;;;;;;;5.00;4.60;;;;;;;3.70;100.00;100781.59;6037319;23;20027;-73
2022/11/19 09:23:42;;;;;;;4.88;4.55;;;;;;;2.52;100.00;100600.88;6039290;23;20096;-73
2022/11/19 09:26:16;;;;;;;5.90;5.25;;;;;;;3.60;100.00;100760.19;6068475;23;20228;-72
2022/11/19 09:28:43;;;;;;;4.30;4.00;;;;;;;3.76;100.00;100779.69;6053743;23;20175;-72
2022/11/19 09:31:13;;;;;;;4.78;4.43;;;;;;;3.80;100.00;100781.34;6078462;23;20021;-73
2022/11/19 09:33:42;;;;;;;6.22;5.72;;;;;;;3.12;100.00;100688.59;6063428;23;20105;-73
2022/11/19 09:36:10;;;;;;;5.65;5.15;;;;;;;3.10;100.00;100694.69;6062012;23;20022;-73
2022/11/19 09:38:38;;;;;;;6.03;4.45;;;;;;;3.72;100.00;100797.97;6048567;23;20538;-75
2022/11/19 09:41:16;;;;;;;4.18;3.95;;;;;;;3.72;100.00;100791.03;6046513;23;20532;-73
2022/11/19 09:44:04;;;;;;;4.32;4.05;;;;;;;3.68;100.00;100799.78;6065194;23;20101;-73
2022/11/19 09:46:51;;;;;;;5.93;4.82;;;;;;;3.63;100.00;100808.56;6049820;23;20051;-73
2022/11/19 09:49:49;;;;;;;5.15;4.72;;;;;;;3.64;100.00;100799.91;6057511;23;20032;-73
2022/11/19 09:52:20;;;;;;;4.13;3.92;;;;;;;3.68;100.00;100804.13;6028626;23;20014;-73
2022/11/19 09:54:52;;;;;;;5.70;4.50;;;;;;;3.73;100.00;100803.16;6083362;23;20022;-73
2022/11/19 09:57:39;;;;;;;3.70;3.50;;;;;;;3.66;100.00;100782.53;6072989;23;20050;-73
2022/11/19 10:00:08;;;;;;;4.60;4.18;;;;;;;3.49;100.00;100757.84;6046552;23;20034;-73
2022/11/19 10:02:35;;;;;;;4.80;4.47;;;;;;;2.67;100.00;100607.50;6038067;23;20276;-73
2022/11/19 10:05:02;;;;;;;5.20;4.80;;;;;;;3.23;100.00;100703.06;6057200;23;20047;-72
2022/11/19 10:07:36;;;;;;;4.05;3.75;;;;;;;3.96;100.00;100814.75;6044981;23;20073;-73
2022/11/19 10:10:34;;;;;;;6.47;5.00;;;;;;;3.18;100.00;100704.00;6082301;23;20159;-73
2022/11/19 10:13:22;;;;;;;4.38;4.03;;;;;;;3.87;100.00;100822.72;6065350;23;20022;-73
2022/11/19 10:16:06;;;;;;;5.10;4.70;;;;;;;3.95;100.00;100823.44;6050470;23;20080;-73
2022/11/19 10:18:53;;;;;;;4.78;4.40;;;;;;;3.51;100.00;100750.03;6061329;23;20260;-75
2022/11/19 10:21:51;;;;;;;4.43;4.05;;;;;;;3.94;100.00;100821.72;6044028;23;20437;-73
2022/11/19 10:24:37;;;;;;;4.32;4.00;;;;;;;4.00;100.00;100818.97;6046028;23;20022;-73
2022/11/19 10:27:27;;;;;;;4.55;4.15;;;;;;;3.58;100.00;100780.97;6085657;23;20995;-72
2022/11/19 10:29:58;;;;;;;4.63;4.32;;;;;;;3.71;100.00;100780.69;6067909;23;20029;-73
2022/11/19 10:32:39;;;;;;;3.92;3.72;;;;;;;3.38;100.00;100736.44;6062925;23;20079;-73
2022/11/19 10:35:21;;;;;;;3.80;3.60;;;;;;;4.00;100.00;100842.34;6055957;23;20022;-73
2022/11/19 10:37:55;;;;;;;5.00;4.60;;;;;;;1.23;100.00;100365.38;6053188;23;20038;-73
2022/11/19 10:40:27;;;;;;;8.80;6.63;;;;;;;4.08;100.00;100824.00;6057469;23;20051;-73
2022/11/19 10:42:59;;;;;;;5.85;4.63;;;;;;;3.75;100.00;100771.97;6033164;23;20034;-73
2022/11/19 10:45:28;;;;;;;4.13;3.83;;;;;;;4.03;100.00;100821.53;6057795;23;20053;-73
2022/11/19 10:48:22;;;;;;;4.72;4.43;;;;;;;3.98;100.00;100825.94;6039060;23;20111;-73
2022/11/19 10:50:50;;;;;;;4.05;3.80;;;;;;;3.88;100.00;100816.66;6066765;23;20033;-73
2022/11/19 10:53:36;;;;;;;4.20;4.00;;;;;;;3.66;100.00;100785.13;6060910;23;20663;-74
2022/11/19 10:56:09;;;;;;;4.38;4.00;;;;;;;3.70;100.00;100753.88;6048083;23;20095;-72
2022/11/19 10:58:41;;;;;;;4.45;4.05;;;;;;;4.04;100.00;100818.00;6042048;23;20306;-74
2022/11/19 11:01:25;;;;;;;4.00;3.80;;;;;;;4.03;100.00;100792.06;6085625;23;20034;-72
2022/11/19 11:04:12;;;;;;;4.85;4.45;;;;;;;4.12;100.00;100820.44;6070842;23;20394;-73
2022/11/19 11:06:48;;;;;;;4.70;4.30;;;;;;;2.79;100.00;100617.59;6062051;23;20097;-72
2022/11/19 11:09:29;;;;;;;4.47;4.18;;;;;;;4.04;100.00;100812.81;6057784;23;20042;-72
2022/11/19 11:14:52;;;;;;;3.58;3.38;;;;;;;4.10;100.00;100820.47;6052252;23;20410;-75
2022/11/19 11:17:30;;;;;;;4.03;3.72;;;;;;;3.98;100.00;100800.81;6068012;23;20033;-73
2022/11/19 11:20:19;;;;;;;4.07;3.88;;;;;;;4.11;100.00;100818.72;6068704;23;20097;-73
2022/11/19 11:22:49;;;;;;;5.28;4.55;;;;;;;4.11;100.00;100827.38;6057571;23;20038;-73
2022/11/19 11:25:27;;;;;;;5.70;4.90;;;;;;;4.19;100.00;100814.22;6068487;23;20038;-73
2022/11/19 11:28:12;;;;;;;5.05;4.68;;;;;;;4.19;100.00;100814.22;6053653;23;20030;-73
2022/11/19 11:30:59;;;;;;;4.97;4.68;;;;;;;3.63;100.00;100741.06;6066838;23;20029;-72
2022/11/19 11:33:28;;;;;;;5.15;4.75;;;;;;;4.18;100.00;100825.47;6058885;23;20376;-73
2022/11/19 11:35:58;;;;;;;4.50;4.10;;;;;;;4.14;100.00;100821.25;5948069;23;20023;-73
2022/11/19 11:38:26;;;;;;;5.22;4.72;;;;;;;3.95;100.00;100803.50;6060151;23;20033;-73
2022/11/19 11:41:07;;;;;;;4.28;4.07;;;;;;;4.09;100.00;100812.69;6075430;23;20033;-73
2022/11/19 11:44:00;;;;;;;4.78;4.47;;;;;;;3.73;100.00;100745.19;6051423;23;20018;-72
2022/11/19 11:46:42;;;;;;;4.90;4.55;;;;;;;3.31;100.00;100670.88;6047861;23;20026;-72
2022/11/19 11:49:26;;;;;;;4.90;4.53;;;;;;;4.14;100.00;100800.47;6081878;23;20033;-72
2022/11/19 11:52:13;;;;;;;4.95;4.65;;;;;;;4.13;100.00;100799.63;6045960;23;20031;-73
2022/11/19 11:54:57;;;;;;;4.22;4.00;;;;;;;3.60;100.00;100695.31;6041815;23;20528;-71
2022/11/19 11:57:28;;;;;;;4.57;4.28;;;;;;;4.18;100.00;100799.50;6044232;23;20519;-72
2022/11/19 11:59:55;;;;;;;4.97;4.18;;;;;;;4.24;100.00;100796.75;6054215;23;20010;-72
2022/11/19 12:02:31;;;;;;;4.55;4.25;;;;;;;4.23;100.00;100800.28;6026428;23;20286;-71
2022/11/19 12:05:01;;;;;;;5.55;4.82;;;;;;;4.26;100.00;100801.94;6079185;23;20018;-72
2022/11/19 12:07:50;;;;;;;4.82;4.50;;;;;;;3.71;100.00;100719.28;6063890;23;20083;-71
2022/11/19 12:10:28;;;;;;;5.03;4.60;;;;;;;4.24;100.00;100794.16;6050063;23;20029;-71
2022/11/19 12:13:10;;;;;;;4.25;4.00;;;;;;;4.19;100.00;100796.03;6066195;23;20038;-71